sensor_id;sensor_type;location;lat;lon;timestamp;P1;durP1;ratioP1;P2;durP2;ratioP2
73678;SDS011;61978;52.742;16.962;2023-11-18T00:00:31;107.00;;;30.30;;
73678;SDS011;61978;52.742;16.962;2023-11-18T00:02:57;118.70;;;31.40;;
73678;SDS011;61978;52.742;16.962;2023-11-18T00:05:24;107.00;;;31.40;;
73678;SDS011;61978;52.742;16.962;2023-11-18T00:07:49;115.10;;;31.60;;
73678;SDS011;61978;52.742;16.962;2023-11-18T00:10:15;109.90;;;32.70;;
73678;SDS011;61978;52.742;16.962;2023-11-18T00:12:41;120.50;;;31.50;;
73678;SDS011;61978;52.742;16.962;2023-11-18T00:15:07;123.00;;;31.80;;
73678;SDS011;61978;52.742;16.962;2023-11-18T00:17:37;130.30;;;32.40;;
73678;SDS011;61978;52.742;16.962;2023-11-18T00:20:03;118.30;;;32.80;;
73678;SDS011;61978;52.742;16.962;2023-11-18T00:22:35;132.70;;;33.50;;
73678;SDS011;61978;52.742;16.962;2023-11-18T00:25:01;120.70;;;32.80;;
73678;SDS011;61978;52.742;16.962;2023-11-18T00:27:30;125.30;;;32.90;;
73678;SDS011;61978;52.742;16.962;2023-11-18T00:29:56;126.40;;;34.20;;
73678;SDS011;61978;52.742;16.962;2023-11-18T00:32:23;137.20;;;35.10;;
73678;SDS011;61978;52.742;16.962;2023-11-18T00:34:48;127.80;;;32.70;;
73678;SDS011;61978;52.742;16.962;2023-11-18T00:37:14;125.80;;;31.60;;
73678;SDS011;61978;52.742;16.962;2023-11-18T00:39:40;127.70;;;35.10;;
73678;SDS011;61978;52.742;16.962;2023-11-18T00:42:06;137.20;;;35.50;;
73678;SDS011;61978;52.742;16.962;2023-11-18T00:44:32;130.40;;;35.70;;
73678;SDS011;61978;52.742;16.962;2023-11-18T00:46:58;127.10;;;33.90;;
73678;SDS011;61978;52.742;16.962;2023-11-18T00:49:26;127.40;;;35.00;;
73678;SDS011;61978;52.742;16.962;2023-11-18T00:51:51;122.40;;;34.10;;
73678;SDS011;61978;52.742;16.962;2023-11-18T00:54:17;128.00;;;33.30;;
73678;SDS011;61978;52.742;16.962;2023-11-18T00:56:43;128.50;;;34.00;;
73678;SDS011;61978;52.742;16.962;2023-11-18T00:59:09;121.30;;;32.00;;
73678;SDS011;61978;52.742;16.962;2023-11-18T01:01:35;129.50;;;32.70;;
73678;SDS011;61978;52.742;16.962;2023-11-18T01:04:02;127.60;;;34.10;;
73678;SDS011;61978;52.742;16.962;2023-11-18T01:06:28;132.60;;;33.60;;
73678;SDS011;61978;52.742;16.962;2023-11-18T01:08:54;114.90;;;32.40;;
73678;SDS011;61978;52.742;16.962;2023-11-18T01:11:19;124.50;;;32.40;;
73678;SDS011;61978;52.742;16.962;2023-11-18T01:13:48;133.00;;;33.20;;
73678;SDS011;61978;52.742;16.962;2023-11-18T01:16:14;122.20;;;32.40;;
73678;SDS011;61978;52.742;16.962;2023-11-18T01:18:41;116.20;;;33.00;;
73678;SDS011;61978;52.742;16.962;2023-11-18T01:21:07;108.90;;;30.80;;
73678;SDS011;61978;52.742;16.962;2023-11-18T01:23:37;108.90;;;32.00;;
73678;SDS011;61978;52.742;16.962;2023-11-18T01:26:04;105.00;;;31.60;;
73678;SDS011;61978;52.742;16.962;2023-11-18T01:28:31;116.20;;;31.60;;
73678;SDS011;61978;52.742;16.962;2023-11-18T01:30:58;101.60;;;29.60;;
73678;SDS011;61978;52.742;16.962;2023-11-18T01:33:24;95.20;;;28.00;;
73678;SDS011;61978;52.742;16.962;2023-11-18T01:35:50;105.10;;;29.90;;
73678;SDS011;61978;52.742;16.962;2023-11-18T01:38:16;117.30;;;28.10;;
73678;SDS011;61978;52.742;16.962;2023-11-18T01:40:43;101.90;;;30.40;;
73678;SDS011;61978;52.742;16.962;2023-11-18T01:43:09;121.10;;;31.30;;
73678;SDS011;61978;52.742;16.962;2023-11-18T01:45:37;113.50;;;29.80;;
73678;SDS011;61978;52.742;16.962;2023-11-18T01:48:03;128.70;;;30.90;;
73678;SDS011;61978;52.742;16.962;2023-11-18T01:50:29;122.70;;;30.50;;
73678;SDS011;61978;52.742;16.962;2023-11-18T01:52:55;115.90;;;29.30;;
73678;SDS011;61978;52.742;16.962;2023-11-18T01:55:21;107.10;;;29.30;;
73678;SDS011;61978;52.742;16.962;2023-11-18T01:57:47;116.90;;;29.60;;
73678;SDS011;61978;52.742;16.962;2023-11-18T02:00:13;127.20;;;30.40;;
73678;SDS011;61978;52.742;16.962;2023-11-18T02:02:38;121.70;;;28.90;;
73678;SDS011;61978;52.742;16.962;2023-11-18T02:05:05;123.40;;;29.80;;
73678;SDS011;61978;52.742;16.962;2023-11-18T02:07:32;138.50;;;29.70;;
73678;SDS011;61978;52.742;16.962;2023-11-18T02:09:59;125.70;;;28.10;;
73678;SDS011;61978;52.742;16.962;2023-11-18T02:14:52;124.10;;;30.70;;
73678;SDS011;61978;52.742;16.962;2023-11-18T02:17:20;137.00;;;30.50;;
73678;SDS011;61978;52.742;16.962;2023-11-18T02:19:50;134.50;;;31.70;;
73678;SDS011;61978;52.742;16.962;2023-11-18T02:22:18;140.70;;;30.20;;
73678;SDS011;61978;52.742;16.962;2023-11-18T02:24:45;143.90;;;32.50;;
73678;SDS011;61978;52.742;16.962;2023-11-18T02:27:11;137.00;;;32.90;;
73678;SDS011;61978;52.742;16.962;2023-11-18T02:29:38;127.00;;;32.20;;
73678;SDS011;61978;52.742;16.962;2023-11-18T02:32:20;125.10;;;30.50;;
73678;SDS011;61978;52.742;16.962;2023-11-18T02:34:51;123.70;;;30.60;;
73678;SDS011;61978;52.742;16.962;2023-11-18T02:37:19;137.10;;;31.70;;
73678;SDS011;61978;52.742;16.962;2023-11-18T02:39:47;113.90;;;28.90;;
73678;SDS011;61978;52.742;16.962;2023-11-18T02:42:17;103.40;;;26.90;;
73678;SDS011;61978;52.742;16.962;2023-11-18T02:44:43;109.50;;;30.10;;
73678;SDS011;61978;52.742;16.962;2023-11-18T02:47:09;106.10;;;29.10;;
73678;SDS011;61978;52.742;16.962;2023-11-18T02:49:36;101.90;;;27.20;;
73678;SDS011;61978;52.742;16.962;2023-11-18T02:52:02;88.80;;;27.30;;
73678;SDS011;61978;52.742;16.962;2023-11-18T02:54:28;94.40;;;27.00;;
73678;SDS011;61978;52.742;16.962;2023-11-18T02:56:53;91.00;;;26.90;;
73678;SDS011;61978;52.742;16.962;2023-11-18T02:59:21;99.00;;;28.20;;
73678;SDS011;61978;52.742;16.962;2023-11-18T03:01:46;92.90;;;27.40;;
73678;SDS011;61978;52.742;16.962;2023-11-18T03:04:12;93.90;;;28.70;;
73678;SDS011;61978;52.742;16.962;2023-11-18T03:06:39;82.90;;;25.30;;
73678;SDS011;61978;52.742;16.962;2023-11-18T03:09:06;72.90;;;22.40;;
73678;SDS011;61978;52.742;16.962;2023-11-18T03:11:33;86.40;;;25.20;;
73678;SDS011;61978;52.742;16.962;2023-11-18T03:13:59;84.00;;;27.20;;
73678;SDS011;61978;52.742;16.962;2023-11-18T03:16:25;86.10;;;29.00;;
73678;SDS011;61978;52.742;16.962;2023-11-18T03:18:50;93.20;;;28.30;;
73678;SDS011;61978;52.742;16.962;2023-11-18T03:21:16;94.10;;;28.20;;
73678;SDS011;61978;52.742;16.962;2023-11-18T03:23:42;70.40;;;21.80;;
73678;SDS011;61978;52.742;16.962;2023-11-18T03:26:08;91.80;;;26.30;;
73678;SDS011;61978;52.742;16.962;2023-11-18T03:28:35;80.80;;;26.90;;
73678;SDS011;61978;52.742;16.962;2023-11-18T03:31:05;90.10;;;26.50;;
73678;SDS011;61978;52.742;16.962;2023-11-18T03:33:31;94.30;;;28.30;;
73678;SDS011;61978;52.742;16.962;2023-11-18T03:35:57;78.40;;;26.10;;
73678;SDS011;61978;52.742;16.962;2023-11-18T03:38:23;84.80;;;25.70;;
73678;SDS011;61978;52.742;16.962;2023-11-18T03:40:50;84.30;;;26.90;;
73678;SDS011;61978;52.742;16.962;2023-11-18T03:43:18;77.40;;;24.60;;
73678;SDS011;61978;52.742;16.962;2023-11-18T03:45:43;78.70;;;24.30;;
73678;SDS011;61978;52.742;16.962;2023-11-18T03:48:09;74.80;;;22.20;;
73678;SDS011;61978;52.742;16.962;2023-11-18T03:50:40;63.70;;;22.80;;
73678;SDS011;61978;52.742;16.962;2023-11-18T03:53:05;67.40;;;22.70;;
73678;SDS011;61978;52.742;16.962;2023-11-18T03:55:31;72.20;;;24.70;;
73678;SDS011;61978;52.742;16.962;2023-11-18T03:57:57;65.50;;;21.20;;
73678;SDS011;61978;52.742;16.962;2023-11-18T04:00:23;55.20;;;19.70;;
73678;SDS011;61978;52.742;16.962;2023-11-18T04:02:59;37.70;;;14.20;;
73678;SDS011;61978;52.742;16.962;2023-11-18T04:05:25;46.70;;;18.30;;
73678;SDS011;61978;52.742;16.962;2023-11-18T04:07:50;46.30;;;17.10;;
73678;SDS011;61978;52.742;16.962;2023-11-18T04:10:17;49.50;;;18.00;;
73678;SDS011;61978;52.742;16.962;2023-11-18T04:12:45;35.00;;;13.50;;
73678;SDS011;61978;52.742;16.962;2023-11-18T04:15:13;30.60;;;13.80;;
73678;SDS011;61978;52.742;16.962;2023-11-18T04:17:39;24.20;;;12.50;;
73678;SDS011;61978;52.742;16.962;2023-11-18T04:20:06;30.10;;;11.50;;
73678;SDS011;61978;52.742;16.962;2023-11-18T04:22:40;27.70;;;10.70;;
73678;SDS011;61978;52.742;16.962;2023-11-18T04:25:09;32.20;;;12.50;;
73678;SDS011;61978;52.742;16.962;2023-11-18T04:27:36;29.00;;;12.20;;
73678;SDS011;61978;52.742;16.962;2023-11-18T04:30:03;28.30;;;11.60;;
73678;SDS011;61978;52.742;16.962;2023-11-18T04:32:29;29.90;;;13.00;;
73678;SDS011;61978;52.742;16.962;2023-11-18T04:34:57;31.00;;;14.30;;
73678;SDS011;61978;52.742;16.962;2023-11-18T04:37:23;28.60;;;13.10;;
73678;SDS011;61978;52.742;16.962;2023-11-18T04:39:48;33.40;;;13.70;;
73678;SDS011;61978;52.742;16.962;2023-11-18T04:42:14;30.40;;;13.40;;
73678;SDS011;61978;52.742;16.962;2023-11-18T04:44:41;32.20;;;14.20;;
73678;SDS011;61978;52.742;16.962;2023-11-18T04:47:06;27.60;;;13.50;;
73678;SDS011;61978;52.742;16.962;2023-11-18T04:49:32;29.00;;;13.50;;
73678;SDS011;61978;52.742;16.962;2023-11-18T04:51:58;44.30;;;19.90;;
73678;SDS011;61978;52.742;16.962;2023-11-18T04:54:24;46.30;;;21.00;;
73678;SDS011;61978;52.742;16.962;2023-11-18T04:56:50;44.80;;;21.50;;
73678;SDS011;61978;52.742;16.962;2023-11-18T04:59:15;50.40;;;23.10;;
73678;SDS011;61978;52.742;16.962;2023-11-18T05:01:43;57.00;;;23.30;;
73678;SDS011;61978;52.742;16.962;2023-11-18T05:04:08;60.30;;;23.80;;
73678;SDS011;61978;52.742;16.962;2023-11-18T05:06:34;58.50;;;23.50;;
73678;SDS011;61978;52.742;16.962;2023-11-18T05:09:00;50.10;;;22.80;;
73678;SDS011;61978;52.742;16.962;2023-11-18T05:11:26;59.30;;;24.30;;
73678;SDS011;61978;52.742;16.962;2023-11-18T05:13:51;61.60;;;22.80;;
73678;SDS011;61978;52.742;16.962;2023-11-18T05:16:18;67.20;;;24.80;;
73678;SDS011;61978;52.742;16.962;2023-11-18T05:18:44;58.10;;;25.40;;
73678;SDS011;61978;52.742;16.962;2023-11-18T05:21:10;56.10;;;25.30;;
73678;SDS011;61978;52.742;16.962;2023-11-18T05:23:36;59.30;;;25.00;;
73678;SDS011;61978;52.742;16.962;2023-11-18T05:26:02;54.60;;;24.30;;
73678;SDS011;61978;52.742;16.962;2023-11-18T05:28:31;62.00;;;24.10;;
73678;SDS011;61978;52.742;16.962;2023-11-18T05:30:57;59.00;;;24.30;;
73678;SDS011;61978;52.742;16.962;2023-11-18T05:33:27;54.20;;;23.70;;
73678;SDS011;61978;52.742;16.962;2023-11-18T05:35:54;61.10;;;25.70;;
73678;SDS011;61978;52.742;16.962;2023-11-18T05:38:20;64.60;;;25.10;;
73678;SDS011;61978;52.742;16.962;2023-11-18T05:40:49;65.30;;;25.40;;
73678;SDS011;61978;52.742;16.962;2023-11-18T05:43:27;62.70;;;25.60;;
73678;SDS011;61978;52.742;16.962;2023-11-18T05:46:05;58.00;;;24.70;;
73678;SDS011;61978;52.742;16.962;2023-11-18T05:48:48;57.10;;;26.20;;
73678;SDS011;61978;52.742;16.962;2023-11-18T05:51:18;55.30;;;25.10;;
73678;SDS011;61978;52.742;16.962;2023-11-18T05:53:50;53.80;;;25.10;;
73678;SDS011;61978;52.742;16.962;2023-11-18T05:56:19;49.90;;;23.70;;
73678;SDS011;61978;52.742;16.962;2023-11-18T05:58:47;55.40;;;24.40;;
73678;SDS011;61978;52.742;16.962;2023-11-18T06:01:13;52.50;;;23.30;;
73678;SDS011;61978;52.742;16.962;2023-11-18T06:03:41;54.20;;;28.60;;
73678;SDS011;61978;52.742;16.962;2023-11-18T06:06:08;55.60;;;24.80;;
73678;SDS011;61978;52.742;16.962;2023-11-18T06:08:38;49.30;;;24.10;;
73678;SDS011;61978;52.742;16.962;2023-11-18T06:11:07;50.50;;;22.80;;
73678;SDS011;61978;52.742;16.962;2023-11-18T06:13:40;44.00;;;23.10;;
73678;SDS011;61978;52.742;16.962;2023-11-18T06:16:16;51.30;;;24.30;;
73678;SDS011;61978;52.742;16.962;2023-11-18T06:18:43;48.70;;;23.50;;
73678;SDS011;61978;52.742;16.962;2023-11-18T06:21:13;50.40;;;24.30;;
73678;SDS011;61978;52.742;16.962;2023-11-18T06:23:40;46.80;;;22.90;;
73678;SDS011;61978;52.742;16.962;2023-11-18T06:26:06;55.60;;;26.40;;
73678;SDS011;61978;52.742;16.962;2023-11-18T06:28:32;55.50;;;27.10;;
73678;SDS011;61978;52.742;16.962;2023-11-18T06:30:59;45.10;;;24.50;;
73678;SDS011;61978;52.742;16.962;2023-11-18T06:33:25;45.10;;;23.80;;
73678;SDS011;61978;52.742;16.962;2023-11-18T06:35:53;49.20;;;24.60;;
73678;SDS011;61978;52.742;16.962;2023-11-18T06:38:20;47.30;;;23.70;;
73678;SDS011;61978;52.742;16.962;2023-11-18T06:40:45;50.20;;;23.20;;
73678;SDS011;61978;52.742;16.962;2023-11-18T06:43:11;41.80;;;21.70;;
73678;SDS011;61978;52.742;16.962;2023-11-18T06:45:46;42.80;;;22.80;;
73678;SDS011;61978;52.742;16.962;2023-11-18T06:48:14;38.50;;;20.70;;
73678;SDS011;61978;52.742;16.962;2023-11-18T06:50:40;38.80;;;20.50;;
73678;SDS011;61978;52.742;16.962;2023-11-18T06:53:09;45.70;;;22.40;;
73678;SDS011;61978;52.742;16.962;2023-11-18T06:55:36;47.00;;;28.10;;
73678;SDS011;61978;52.742;16.962;2023-11-18T06:58:01;44.90;;;26.40;;
73678;SDS011;61978;52.742;16.962;2023-11-18T07:00:28;42.80;;;24.20;;
73678;SDS011;61978;52.742;16.962;2023-11-18T07:02:54;37.50;;;22.20;;
73678;SDS011;61978;52.742;16.962;2023-11-18T07:05:21;41.60;;;22.50;;
73678;SDS011;61978;52.742;16.962;2023-11-18T07:07:49;45.60;;;23.20;;
73678;SDS011;61978;52.742;16.962;2023-11-18T07:10:16;48.70;;;25.80;;
73678;SDS011;61978;52.742;16.962;2023-11-18T07:12:46;41.50;;;23.80;;
73678;SDS011;61978;52.742;16.962;2023-11-18T07:15:15;51.50;;;32.80;;
73678;SDS011;61978;52.742;16.962;2023-11-18T07:17:42;46.30;;;26.60;;
73678;SDS011;61978;52.742;16.962;2023-11-18T07:20:09;46.80;;;24.00;;
73678;SDS011;61978;52.742;16.962;2023-11-18T07:22:39;45.70;;;25.10;;
73678;SDS011;61978;52.742;16.962;2023-11-18T07:25:05;50.00;;;27.70;;
73678;SDS011;61978;52.742;16.962;2023-11-18T07:27:35;44.10;;;24.70;;
73678;SDS011;61978;52.742;16.962;2023-11-18T07:30:01;59.20;;;33.50;;
73678;SDS011;61978;52.742;16.962;2023-11-18T07:32:28;96.10;;;43.90;;
73678;SDS011;61978;52.742;16.962;2023-11-18T07:34:55;63.40;;;35.20;;
73678;SDS011;61978;52.742;16.962;2023-11-18T07:37:21;37.10;;;23.70;;
73678;SDS011;61978;52.742;16.962;2023-11-18T07:39:48;48.10;;;24.80;;
73678;SDS011;61978;52.742;16.962;2023-11-18T07:42:14;55.30;;;31.20;;
73678;SDS011;61978;52.742;16.962;2023-11-18T07:44:41;44.30;;;24.80;;
73678;SDS011;61978;52.742;16.962;2023-11-18T07:47:06;43.90;;;23.50;;
73678;SDS011;61978;52.742;16.962;2023-11-18T07:49:35;45.20;;;23.50;;
73678;SDS011;61978;52.742;16.962;2023-11-18T07:52:02;38.70;;;21.50;;
73678;SDS011;61978;52.742;16.962;2023-11-18T07:54:27;44.20;;;25.50;;
73678;SDS011;61978;52.742;16.962;2023-11-18T07:56:54;39.60;;;22.80;;
73678;SDS011;61978;52.742;16.962;2023-11-18T07:59:20;41.30;;;21.20;;
73678;SDS011;61978;52.742;16.962;2023-11-18T08:01:46;46.00;;;24.30;;
73678;SDS011;61978;52.742;16.962;2023-11-18T08:04:15;48.50;;;27.00;;
73678;SDS011;61978;52.742;16.962;2023-11-18T08:06:42;77.90;;;48.60;;
73678;SDS011;61978;52.742;16.962;2023-11-18T08:09:09;43.70;;;29.40;;
73678;SDS011;61978;52.742;16.962;2023-11-18T08:11:40;36.50;;;21.00;;
73678;SDS011;61978;52.742;16.962;2023-11-18T08:14:07;38.50;;;20.10;;
73678;SDS011;61978;52.742;16.962;2023-11-18T08:16:35;42.20;;;25.70;;
73678;SDS011;61978;52.742;16.962;2023-11-18T08:19:01;41.70;;;23.00;;
73678;SDS011;61978;52.742;16.962;2023-11-18T08:21:34;38.40;;;20.00;;
73678;SDS011;61978;52.742;16.962;2023-11-18T08:24:00;35.50;;;21.30;;
73678;SDS011;61978;52.742;16.962;2023-11-18T08:26:27;75.50;;;43.70;;
73678;SDS011;61978;52.742;16.962;2023-11-18T08:28:53;48.20;;;31.90;;
73678;SDS011;61978;52.742;16.962;2023-11-18T08:31:20;39.70;;;24.30;;
73678;SDS011;61978;52.742;16.962;2023-11-18T08:33:46;36.30;;;22.30;;
73678;SDS011;61978;52.742;16.962;2023-11-18T08:36:13;38.60;;;24.10;;
73678;SDS011;61978;52.742;16.962;2023-11-18T08:38:39;36.70;;;21.60;;
73678;SDS011;61978;52.742;16.962;2023-11-18T08:41:05;37.10;;;22.60;;
73678;SDS011;61978;52.742;16.962;2023-11-18T08:43:34;40.90;;;22.50;;
73678;SDS011;61978;52.742;16.962;2023-11-18T08:46:01;36.90;;;22.50;;
73678;SDS011;61978;52.742;16.962;2023-11-18T08:48:27;43.70;;;24.60;;
73678;SDS011;61978;52.742;16.962;2023-11-18T08:50:54;38.30;;;22.80;;
73678;SDS011;61978;52.742;16.962;2023-11-18T08:53:19;35.40;;;21.70;;
73678;SDS011;61978;52.742;16.962;2023-11-18T08:55:51;36.70;;;21.00;;
73678;SDS011;61978;52.742;16.962;2023-11-18T08:58:19;43.40;;;25.40;;
73678;SDS011;61978;52.742;16.962;2023-11-18T09:00:48;75.60;;;43.60;;
73678;SDS011;61978;52.742;16.962;2023-11-18T09:03:18;38.60;;;23.70;;
73678;SDS011;61978;52.742;16.962;2023-11-18T09:05:54;34.40;;;22.60;;
73678;SDS011;61978;52.742;16.962;2023-11-18T09:08:34;36.90;;;24.50;;
73678;SDS011;61978;52.742;16.962;2023-11-18T09:11:01;37.40;;;23.40;;
73678;SDS011;61978;52.742;16.962;2023-11-18T09:13:27;34.60;;;21.10;;
73678;SDS011;61978;52.742;16.962;2023-11-18T09:15:57;33.40;;;20.90;;
73678;SDS011;61978;52.742;16.962;2023-11-18T09:18:26;35.70;;;20.40;;
73678;SDS011;61978;52.742;16.962;2023-11-18T09:21:04;37.00;;;23.90;;
73678;SDS011;61978;52.742;16.962;2023-11-18T09:23:32;27.20;;;19.20;;
73678;SDS011;61978;52.742;16.962;2023-11-18T09:26:00;29.10;;;19.70;;
73678;SDS011;61978;52.742;16.962;2023-11-18T09:28:27;30.70;;;19.60;;
73678;SDS011;61978;52.742;16.962;2023-11-18T09:30:56;28.60;;;20.00;;
73678;SDS011;61978;52.742;16.962;2023-11-18T09:33:23;31.10;;;20.40;;
73678;SDS011;61978;52.742;16.962;2023-11-18T09:36:05;36.50;;;21.50;;
73678;SDS011;61978;52.742;16.962;2023-11-18T09:38:38;33.10;;;20.50;;
73678;SDS011;61978;52.742;16.962;2023-11-18T09:41:07;34.70;;;21.70;;
73678;SDS011;61978;52.742;16.962;2023-11-18T09:43:40;39.20;;;22.80;;
73678;SDS011;61978;52.742;16.962;2023-11-18T09:46:13;43.90;;;24.80;;
73678;SDS011;61978;52.742;16.962;2023-11-18T09:51:08;49.80;;;26.40;;
73678;SDS011;61978;52.742;16.962;2023-11-18T09:53:38;39.30;;;22.00;;
73678;SDS011;61978;52.742;16.962;2023-11-18T09:56:19;43.00;;;24.60;;
73678;SDS011;61978;52.742;16.962;2023-11-18T09:59:03;41.40;;;23.00;;
73678;SDS011;61978;52.742;16.962;2023-11-18T10:01:33;33.00;;;21.90;;
73678;SDS011;61978;52.742;16.962;2023-11-18T10:04:04;43.30;;;24.80;;
73678;SDS011;61978;52.742;16.962;2023-11-18T10:06:33;74.00;;;34.20;;
73678;SDS011;61978;52.742;16.962;2023-11-18T10:09:01;65.70;;;32.90;;
73678;SDS011;61978;52.742;16.962;2023-11-18T10:11:44;79.50;;;36.90;;
73678;SDS011;61978;52.742;16.962;2023-11-18T10:14:16;30.50;;;20.10;;
73678;SDS011;61978;52.742;16.962;2023-11-18T10:16:45;30.60;;;18.10;;
73678;SDS011;61978;52.742;16.962;2023-11-18T10:19:13;32.90;;;20.00;;
73678;SDS011;61978;52.742;16.962;2023-11-18T10:21:40;32.20;;;19.20;;
73678;SDS011;61978;52.742;16.962;2023-11-18T10:24:07;31.80;;;19.60;;
73678;SDS011;61978;52.742;16.962;2023-11-18T10:26:45;140.10;;;70.80;;
73678;SDS011;61978;52.742;16.962;2023-11-18T10:29:14;31.80;;;20.50;;
73678;SDS011;61978;52.742;16.962;2023-11-18T10:31:40;113.00;;;62.30;;
73678;SDS011;61978;52.742;16.962;2023-11-18T10:34:13;42.00;;;25.50;;
73678;SDS011;61978;52.742;16.962;2023-11-18T10:36:42;39.10;;;23.40;;
73678;SDS011;61978;52.742;16.962;2023-11-18T10:39:27;26.70;;;18.10;;
73678;SDS011;61978;52.742;16.962;2023-11-18T10:41:53;28.90;;;19.50;;
73678;SDS011;61978;52.742;16.962;2023-11-18T10:44:24;36.60;;;21.20;;
73678;SDS011;61978;52.742;16.962;2023-11-18T10:46:53;37.20;;;21.80;;
73678;SDS011;61978;52.742;16.962;2023-11-18T10:49:20;28.40;;;19.30;;
73678;SDS011;61978;52.742;16.962;2023-11-18T10:51:46;28.00;;;19.50;;
73678;SDS011;61978;52.742;16.962;2023-11-18T10:54:13;25.50;;;17.90;;
73678;SDS011;61978;52.742;16.962;2023-11-18T10:56:49;27.90;;;18.90;;
73678;SDS011;61978;52.742;16.962;2023-11-18T10:59:15;26.10;;;18.80;;
73678;SDS011;61978;52.742;16.962;2023-11-18T11:01:43;29.20;;;18.80;;
73678;SDS011;61978;52.742;16.962;2023-11-18T11:04:09;30.90;;;19.50;;
73678;SDS011;61978;52.742;16.962;2023-11-18T11:06:43;26.10;;;18.10;;
73678;SDS011;61978;52.742;16.962;2023-11-18T11:09:11;29.80;;;19.10;;
73678;SDS011;61978;52.742;16.962;2023-11-18T11:11:49;32.40;;;17.90;;
73678;SDS011;61978;52.742;16.962;2023-11-18T11:14:16;32.70;;;19.00;;
73678;SDS011;61978;52.742;16.962;2023-11-18T11:16:46;30.40;;;20.20;;
73678;SDS011;61978;52.742;16.962;2023-11-18T11:19:20;27.20;;;18.80;;
73678;SDS011;61978;52.742;16.962;2023-11-18T11:21:53;27.60;;;19.00;;
73678;SDS011;61978;52.742;16.962;2023-11-18T11:27:13;33.90;;;20.60;;
73678;SDS011;61978;52.742;16.962;2023-11-18T11:30:13;28.40;;;19.80;;
73678;SDS011;61978;52.742;16.962;2023-11-18T11:32:39;31.00;;;19.70;;
73678;SDS011;61978;52.742;16.962;2023-11-18T11:35:14;31.70;;;20.60;;
73678;SDS011;61978;52.742;16.962;2023-11-18T11:40:10;31.20;;;22.10;;
73678;SDS011;61978;52.742;16.962;2023-11-18T11:42:42;32.50;;;20.50;;
73678;SDS011;61978;52.742;16.962;2023-11-18T11:45:10;34.70;;;24.10;;
73678;SDS011;61978;52.742;16.962;2023-11-18T11:47:48;32.40;;;20.60;;
73678;SDS011;61978;52.742;16.962;2023-11-18T11:50:19;30.90;;;19.60;;
73678;SDS011;61978;52.742;16.962;2023-11-18T11:52:56;26.40;;;17.60;;
73678;SDS011;61978;52.742;16.962;2023-11-18T11:55:33;40.60;;;21.80;;
73678;SDS011;61978;52.742;16.962;2023-11-18T11:58:02;32.60;;;19.10;;
73678;SDS011;61978;52.742;16.962;2023-11-18T12:00:28;27.50;;;19.20;;
73678;SDS011;61978;52.742;16.962;2023-11-18T12:03:00;26.40;;;18.40;;
73678;SDS011;61978;52.742;16.962;2023-11-18T12:05:31;23.50;;;15.30;;
73678;SDS011;61978;52.742;16.962;2023-11-18T12:07:59;25.40;;;17.20;;
73678;SDS011;61978;52.742;16.962;2023-11-18T12:10:27;18.90;;;15.40;;
73678;SDS011;61978;52.742;16.962;2023-11-18T12:13:09;19.30;;;15.60;;
73678;SDS011;61978;52.742;16.962;2023-11-18T12:15:48;23.60;;;16.00;;
73678;SDS011;61978;52.742;16.962;2023-11-18T12:18:24;29.70;;;22.90;;
73678;SDS011;61978;52.742;16.962;2023-11-18T12:20:50;22.80;;;17.10;;
73678;SDS011;61978;52.742;16.962;2023-11-18T12:23:23;23.00;;;16.30;;
73678;SDS011;61978;52.742;16.962;2023-11-18T12:25:51;21.50;;;16.10;;
73678;SDS011;61978;52.742;16.962;2023-11-18T12:30:55;20.40;;;15.80;;
73678;SDS011;61978;52.742;16.962;2023-11-18T12:33:25;22.50;;;17.10;;
73678;SDS011;61978;52.742;16.962;2023-11-18T12:41:38;24.40;;;15.60;;
73678;SDS011;61978;52.742;16.962;2023-11-18T12:44:15;20.70;;;14.60;;
73678;SDS011;61978;52.742;16.962;2023-11-18T12:46:50;19.20;;;15.50;;
73678;SDS011;61978;52.742;16.962;2023-11-18T12:49:19;143.20;;;94.10;;
73678;SDS011;61978;52.742;16.962;2023-11-18T12:51:54;28.00;;;20.70;;
73678;SDS011;61978;52.742;16.962;2023-11-18T12:54:25;29.40;;;21.80;;
73678;SDS011;61978;52.742;16.962;2023-11-18T12:56:54;625.90;;;450.50;;
73678;SDS011;61978;52.742;16.962;2023-11-18T12:59:20;949.00;;;644.90;;
73678;SDS011;61978;52.742;16.962;2023-11-18T13:01:49;136.20;;;75.80;;
73678;SDS011;61978;52.742;16.962;2023-11-18T13:04:22;40.00;;;25.40;;
73678;SDS011;61978;52.742;16.962;2023-11-18T13:06:53;24.80;;;20.50;;
73678;SDS011;61978;52.742;16.962;2023-11-18T13:09:23;21.50;;;16.50;;
73678;SDS011;61978;52.742;16.962;2023-11-18T13:11:56;25.30;;;17.90;;
73678;SDS011;61978;52.742;16.962;2023-11-18T13:14:26;24.10;;;17.00;;
73678;SDS011;61978;52.742;16.962;2023-11-18T13:16:53;27.50;;;17.10;;
73678;SDS011;61978;52.742;16.962;2023-11-18T13:19:23;25.00;;;18.00;;
73678;SDS011;61978;52.742;16.962;2023-11-18T13:21:49;25.50;;;17.90;;
73678;SDS011;61978;52.742;16.962;2023-11-18T13:24:15;25.20;;;16.80;;
73678;SDS011;61978;52.742;16.962;2023-11-18T13:26:42;23.10;;;16.30;;
73678;SDS011;61978;52.742;16.962;2023-11-18T13:29:09;34.30;;;21.30;;
73678;SDS011;61978;52.742;16.962;2023-11-18T13:31:35;22.20;;;16.70;;
73678;SDS011;61978;52.742;16.962;2023-11-18T13:34:01;23.50;;;17.40;;
73678;SDS011;61978;52.742;16.962;2023-11-18T13:36:29;20.60;;;15.30;;
73678;SDS011;61978;52.742;16.962;2023-11-18T13:38:57;20.00;;;16.20;;
73678;SDS011;61978;52.742;16.962;2023-11-18T13:41:32;20.50;;;14.80;;
73678;SDS011;61978;52.742;16.962;2023-11-18T13:44:00;20.80;;;15.70;;
73678;SDS011;61978;52.742;16.962;2023-11-18T13:46:26;21.20;;;15.20;;
73678;SDS011;61978;52.742;16.962;2023-11-18T13:48:52;23.30;;;14.40;;
73678;SDS011;61978;52.742;16.962;2023-11-18T13:51:19;21.20;;;14.60;;
73678;SDS011;61978;52.742;16.962;2023-11-18T13:53:46;18.50;;;14.10;;
73678;SDS011;61978;52.742;16.962;2023-11-18T13:56:13;17.00;;;12.90;;
73678;SDS011;61978;52.742;16.962;2023-11-18T13:58:41;18.00;;;13.40;;
73678;SDS011;61978;52.742;16.962;2023-11-18T14:01:08;16.90;;;13.50;;
73678;SDS011;61978;52.742;16.962;2023-11-18T14:03:35;17.00;;;13.20;;
73678;SDS011;61978;52.742;16.962;2023-11-18T14:06:07;19.40;;;14.70;;
73678;SDS011;61978;52.742;16.962;2023-11-18T14:08:36;20.30;;;14.60;;
73678;SDS011;61978;52.742;16.962;2023-11-18T14:11:03;21.60;;;16.50;;
73678;SDS011;61978;52.742;16.962;2023-11-18T14:13:31;21.00;;;15.90;;
73678;SDS011;61978;52.742;16.962;2023-11-18T14:15:58;24.00;;;17.60;;
73678;SDS011;61978;52.742;16.962;2023-11-18T14:18:25;23.20;;;17.10;;
73678;SDS011;61978;52.742;16.962;2023-11-18T14:20:54;21.20;;;16.70;;
73678;SDS011;61978;52.742;16.962;2023-11-18T14:23:22;21.40;;;16.40;;
73678;SDS011;61978;52.742;16.962;2023-11-18T14:25:50;32.80;;;22.50;;
73678;SDS011;61978;52.742;16.962;2023-11-18T14:28:19;30.80;;;22.40;;
73678;SDS011;61978;52.742;16.962;2023-11-18T14:30:51;55.60;;;37.00;;